sensor_id;sensor_type;location;lat;lon;timestamp;temperature;humidity
8862;DHT22;4799;50.996;4.754;2024-03-17T00:00:45;7.00;99.90
8862;DHT22;4799;50.996;4.754;2024-03-17T00:03:10;7.00;99.90
8862;DHT22;4799;50.996;4.754;2024-03-17T00:05:37;6.90;99.90
8862;DHT22;4799;50.996;4.754;2024-03-17T00:08:04;7.00;99.90
8862;DHT22;4799;50.996;4.754;2024-03-17T00:10:32;7.00;99.90
8862;DHT22;4799;50.996;4.754;2024-03-17T00:12:58;7.00;99.90
8862;DHT22;4799;50.996;4.754;2024-03-17T00:15:27;7.00;99.90
8862;DHT22;4799;50.996;4.754;2024-03-17T00:17:53;7.10;99.90
8862;DHT22;4799;50.996;4.754;2024-03-17T00:20:19;7.10;99.90
8862;DHT22;4799;50.996;4.754;2024-03-17T00:22:48;7.10;99.90
8862;DHT22;4799;50.996;4.754;2024-03-17T00:25:14;7.20;99.90
8862;DHT22;4799;50.996;4.754;2024-03-17T00:27:39;7.20;99.90
8862;DHT22;4799;50.996;4.754;2024-03-17T00:30:08;7.30;99.90
8862;DHT22;4799;50.996;4.754;2024-03-17T00:32:41;7.30;99.90
8862;DHT22;4799;50.996;4.754;2024-03-17T00:35:09;7.30;99.90
8862;DHT22;4799;50.996;4.754;2024-03-17T00:37:36;7.30;99.90
8862;DHT22;4799;50.996;4.754;2024-03-17T00:40:02;7.30;99.90
8862;DHT22;4799;50.996;4.754;2024-03-17T00:42:29;7.20;99.90
8862;DHT22;4799;50.996;4.754;2024-03-17T00:44:56;7.20;99.90
8862;DHT22;4799;50.996;4.754;2024-03-17T00:47:21;7.20;99.90
8862;DHT22;4799;50.996;4.754;2024-03-17T00:49:47;7.10;99.90
8862;DHT22;4799;50.996;4.754;2024-03-17T00:52:16;7.10;99.90
8862;DHT22;4799;50.996;4.754;2024-03-17T00:54:42;7.00;99.90
8862;DHT22;4799;50.996;4.754;2024-03-17T00:57:07;7.00;99.90
8862;DHT22;4799;50.996;4.754;2024-03-17T00:59:36;7.00;99.90
8862;DHT22;4799;50.996;4.754;2024-03-17T01:02:02;7.00;99.90
8862;DHT22;4799;50.996;4.754;2024-03-17T01:04:28;6.90;99.90
8862;DHT22;4799;50.996;4.754;2024-03-17T01:06:54;6.90;99.90
8862;DHT22;4799;50.996;4.754;2024-03-17T01:09:20;6.90;99.90
8862;DHT22;4799;50.996;4.754;2024-03-17T01:11:45;6.90;99.90
8862;DHT22;4799;50.996;4.754;2024-03-17T01:14:11;6.80;99.90
8862;DHT22;4799;50.996;4.754;2024-03-17T01:16:36;6.80;99.90
8862;DHT22;4799;50.996;4.754;2024-03-17T01:19:02;6.80;99.90
8862;DHT22;4799;50.996;4.754;2024-03-17T01:21:28;6.80;99.90
8862;DHT22;4799;50.996;4.754;2024-03-17T01:23:54;6.80;99.90
8862;DHT22;4799;50.996;4.754;2024-03-17T01:26:20;6.80;99.90
8862;DHT22;4799;50.996;4.754;2024-03-17T01:28:45;6.80;99.90
8862;DHT22;4799;50.996;4.754;2024-03-17T01:31:11;6.80;99.90
8862;DHT22;4799;50.996;4.754;2024-03-17T01:33:36;6.80;99.90
8862;DHT22;4799;50.996;4.754;2024-03-17T01:36:02;6.90;99.90
8862;DHT22;4799;50.996;4.754;2024-03-17T01:38:28;6.90;99.90
8862;DHT22;4799;50.996;4.754;2024-03-17T01:40:54;6.90;99.90
8862;DHT22;4799;50.996;4.754;2024-03-17T01:43:19;6.90;99.90
8862;DHT22;4799;50.996;4.754;2024-03-17T01:45:45;6.80;99.90
8862;DHT22;4799;50.996;4.754;2024-03-17T01:48:14;6.80;99.90
8862;DHT22;4799;50.996;4.754;2024-03-17T01:50:41;6.80;99.90
8862;DHT22;4799;50.996;4.754;2024-03-17T01:53:09;6.80;99.90
8862;DHT22;4799;50.996;4.754;2024-03-17T01:55:37;6.80;99.90
8862;DHT22;4799;50.996;4.754;2024-03-17T01:58:05;6.80;99.90
8862;DHT22;4799;50.996;4.754;2024-03-17T02:00:36;6.80;99.90
8862;DHT22;4799;50.996;4.754;2024-03-17T02:03:07;6.80;99.90
8862;DHT22;4799;50.996;4.754;2024-03-17T02:05:36;6.80;99.90
8862;DHT22;4799;50.996;4.754;2024-03-17T02:08:05;6.80;99.90
8862;DHT22;4799;50.996;4.754;2024-03-17T02:10:33;6.80;99.90
8862;DHT22;4799;50.996;4.754;2024-03-17T02:13:00;6.80;99.90
8862;DHT22;4799;50.996;4.754;2024-03-17T02:15:26;6.90;99.90
8862;DHT22;4799;50.996;4.754;2024-03-17T02:17:52;6.90;99.90
8862;DHT22;4799;50.996;4.754;2024-03-17T02:20:17;7.00;99.90
8862;DHT22;4799;50.996;4.754;2024-03-17T02:22:43;7.00;99.90
8862;DHT22;4799;50.996;4.754;2024-03-17T02:25:09;7.00;99.90
8862;DHT22;4799;50.996;4.754;2024-03-17T02:27:35;7.00;99.90
8862;DHT22;4799;50.996;4.754;2024-03-17T02:30:05;7.00;99.90
8862;DHT22;4799;50.996;4.754;2024-03-17T02:32:35;7.00;99.90
8862;DHT22;4799;50.996;4.754;2024-03-17T02:35:01;7.10;99.90
8862;DHT22;4799;50.996;4.754;2024-03-17T02:37:27;7.10;99.90
8862;DHT22;4799;50.996;4.754;2024-03-17T02:39:53;7.10;99.90
8862;DHT22;4799;50.996;4.754;2024-03-17T02:42:19;7.10;99.90
8862;DHT22;4799;50.996;4.754;2024-03-17T02:44:44;7.10;99.90
8862;DHT22;4799;50.996;4.754;2024-03-17T02:47:11;7.10;99.90
8862;DHT22;4799;50.996;4.754;2024-03-17T02:49:40;7.00;99.90
8862;DHT22;4799;50.996;4.754;2024-03-17T02:52:09;7.00;99.90
8862;DHT22;4799;50.996;4.754;2024-03-17T02:54:36;7.00;99.90
8862;DHT22;4799;50.996;4.754;2024-03-17T02:57:03;7.00;99.90
8862;DHT22;4799;50.996;4.754;2024-03-17T02:59:28;7.00;99.90
8862;DHT22;4799;50.996;4.754;2024-03-17T03:01:54;6.90;99.90
8862;DHT22;4799;50.996;4.754;2024-03-17T03:04:20;7.00;99.90
8862;DHT22;4799;50.996;4.754;2024-03-17T03:06:46;7.00;99.90
8862;DHT22;4799;50.996;4.754;2024-03-17T03:09:12;6.90;99.90
8862;DHT22;4799;50.996;4.754;2024-03-17T03:11:42;7.00;99.90
8862;DHT22;4799;50.996;4.754;2024-03-17T03:14:08;7.00;99.90
8862;DHT22;4799;50.996;4.754;2024-03-17T03:16:34;7.00;99.90
8862;DHT22;4799;50.996;4.754;2024-03-17T03:19:00;7.00;99.90
8862;DHT22;4799;50.996;4.754;2024-03-17T03:21:25;7.00;99.90
8862;DHT22;4799;50.996;4.754;2024-03-17T03:23:52;7.00;99.90
8862;DHT22;4799;50.996;4.754;2024-03-17T03:26:17;7.00;99.90
8862;DHT22;4799;50.996;4.754;2024-03-17T03:28:44;7.00;99.90
8862;DHT22;4799;50.996;4.754;2024-03-17T03:31:13;7.10;99.90
8862;DHT22;4799;50.996;4.754;2024-03-17T03:33:42;7.10;99.90
8862;DHT22;4799;50.996;4.754;2024-03-17T03:38:35;7.10;99.90
8862;DHT22;4799;50.996;4.754;2024-03-17T03:41:14;7.10;99.90
8862;DHT22;4799;50.996;4.754;2024-03-17T03:43:40;7.20;99.90
8862;DHT22;4799;50.996;4.754;2024-03-17T03:46:07;7.20;99.90
8862;DHT22;4799;50.996;4.754;2024-03-17T03:48:33;7.20;99.90
8862;DHT22;4799;50.996;4.754;2024-03-17T03:51:09;7.20;99.90
8862;DHT22;4799;50.996;4.754;2024-03-17T03:53:36;7.20;99.90
8862;DHT22;4799;50.996;4.754;2024-03-17T03:56:05;7.20;99.90
8862;DHT22;4799;50.996;4.754;2024-03-17T03:58:36;7.10;99.90
8862;DHT22;4799;50.996;4.754;2024-03-17T04:01:06;7.10;99.90
8862;DHT22;4799;50.996;4.754;2024-03-17T04:03:35;7.10;99.90
8862;DHT22;4799;50.996;4.754;2024-03-17T04:06:11;7.10;99.90
8862;DHT22;4799;50.996;4.754;2024-03-17T04:08:38;7.10;99.90
8862;DHT22;4799;50.996;4.754;2024-03-17T04:11:07;7.10;99.90
8862;DHT22;4799;50.996;4.754;2024-03-17T04:13:33;7.00;99.90
8862;DHT22;4799;50.996;4.754;2024-03-17T04:16:00;7.00;99.90
8862;DHT22;4799;50.996;4.754;2024-03-17T04:18:27;7.00;99.90
8862;DHT22;4799;50.996;4.754;2024-03-17T04:20:56;7.00;99.90
8862;DHT22;4799;50.996;4.754;2024-03-17T04:23:23;7.00;99.90
8862;DHT22;4799;50.996;4.754;2024-03-17T04:25:49;7.00;99.90
8862;DHT22;4799;50.996;4.754;2024-03-17T04:28:16;7.00;99.90
8862;DHT22;4799;50.996;4.754;2024-03-17T04:30:45;7.00;99.90
8862;DHT22;4799;50.996;4.754;2024-03-17T04:33:11;6.90;99.90
8862;DHT22;4799;50.996;4.754;2024-03-17T04:35:38;6.90;99.90
8862;DHT22;4799;50.996;4.754;2024-03-17T04:38:04;6.90;99.90
8862;DHT22;4799;50.996;4.754;2024-03-17T04:40:33;6.90;99.90
8862;DHT22;4799;50.996;4.754;2024-03-17T04:43:00;6.90;99.90
8862;DHT22;4799;50.996;4.754;2024-03-17T04:45:25;6.80;99.90
8862;DHT22;4799;50.996;4.754;2024-03-17T04:47:52;6.80;99.90
8862;DHT22;4799;50.996;4.754;2024-03-17T04:50:17;6.70;99.90
8862;DHT22;4799;50.996;4.754;2024-03-17T04:52:44;6.70;99.90
8862;DHT22;4799;50.996;4.754;2024-03-17T04:55:09;6.70;99.90
8862;DHT22;4799;50.996;4.754;2024-03-17T04:57:35;6.60;99.90
8862;DHT22;4799;50.996;4.754;2024-03-17T05:00:02;6.60;99.90
8862;DHT22;4799;50.996;4.754;2024-03-17T05:02:32;6.50;99.90
8862;DHT22;4799;50.996;4.754;2024-03-17T05:04:58;6.40;99.90
8862;DHT22;4799;50.996;4.754;2024-03-17T05:07:24;6.40;99.90
8862;DHT22;4799;50.996;4.754;2024-03-17T05:09:50;6.40;99.90
8862;DHT22;4799;50.996;4.754;2024-03-17T05:12:16;6.30;99.90
8862;DHT22;4799;50.996;4.754;2024-03-17T05:14:42;6.30;99.90
8862;DHT22;4799;50.996;4.754;2024-03-17T05:17:07;6.30;99.90
8862;DHT22;4799;50.996;4.754;2024-03-17T05:19:33;6.30;99.90
8862;DHT22;4799;50.996;4.754;2024-03-17T05:21:59;6.30;99.90
8862;DHT22;4799;50.996;4.754;2024-03-17T05:24:25;6.20;99.90
8862;DHT22;4799;50.996;4.754;2024-03-17T05:26:51;6.20;99.90
8862;DHT22;4799;50.996;4.754;2024-03-17T05:29:17;6.20;99.90
8862;DHT22;4799;50.996;4.754;2024-03-17T05:31:43;6.20;99.90
8862;DHT22;4799;50.996;4.754;2024-03-17T05:34:09;6.20;99.90
8862;DHT22;4799;50.996;4.754;2024-03-17T05:36:36;6.20;99.90
8862;DHT22;4799;50.996;4.754;2024-03-17T05:39:02;6.20;99.90
8862;DHT22;4799;50.996;4.754;2024-03-17T05:41:28;6.20;99.90
8862;DHT22;4799;50.996;4.754;2024-03-17T05:43:56;6.20;99.90
8862;DHT22;4799;50.996;4.754;2024-03-17T05:46:29;6.10;99.90
8862;DHT22;4799;50.996;4.754;2024-03-17T05:48:55;6.10;99.90
8862;DHT22;4799;50.996;4.754;2024-03-17T05:51:21;6.20;99.90
8862;DHT22;4799;50.996;4.754;2024-03-17T05:53:47;6.20;99.90
8862;DHT22;4799;50.996;4.754;2024-03-17T05:56:13;6.20;99.90
8862;DHT22;4799;50.996;4.754;2024-03-17T05:58:42;6.30;99.90
8862;DHT22;4799;50.996;4.754;2024-03-17T06:01:08;6.30;99.90
8862;DHT22;4799;50.996;4.754;2024-03-17T06:03:34;6.40;99.90
8862;DHT22;4799;50.996;4.754;2024-03-17T06:06:04;6.50;99.90
8862;DHT22;4799;50.996;4.754;2024-03-17T06:08:33;6.60;99.90
8862;DHT22;4799;50.996;4.754;2024-03-17T06:10:58;6.70;99.90
8862;DHT22;4799;50.996;4.754;2024-03-17T06:13:26;6.80;99.90
8862;DHT22;4799;50.996;4.754;2024-03-17T06:15:52;6.90;99.90
8862;DHT22;4799;50.996;4.754;2024-03-17T06:18:18;7.00;99.90
8862;DHT22;4799;50.996;4.754;2024-03-17T06:20:45;7.10;99.90
8862;DHT22;4799;50.996;4.754;2024-03-17T06:23:11;7.10;99.90
8862;DHT22;4799;50.996;4.754;2024-03-17T06:25:45;7.20;99.90
8862;DHT22;4799;50.996;4.754;2024-03-17T06:28:12;7.20;99.90
8862;DHT22;4799;50.996;4.754;2024-03-17T06:30:41;7.20;99.90
8862;DHT22;4799;50.996;4.754;2024-03-17T06:33:07;7.30;99.90
8862;DHT22;4799;50.996;4.754;2024-03-17T06:35:36;7.40;99.90
8862;DHT22;4799;50.996;4.754;2024-03-17T06:38:02;7.40;99.90
8862;DHT22;4799;50.996;4.754;2024-03-17T06:40:27;7.50;99.90
8862;DHT22;4799;50.996;4.754;2024-03-17T06:42:54;7.60;99.90
8862;DHT22;4799;50.996;4.754;2024-03-17T06:45:20;7.60;99.90
8862;DHT22;4799;50.996;4.754;2024-03-17T06:47:49;7.60;99.90
8862;DHT22;4799;50.996;4.754;2024-03-17T06:50:15;7.70;99.90
8862;DHT22;4799;50.996;4.754;2024-03-17T06:52:41;7.80;99.90
8862;DHT22;4799;50.996;4.754;2024-03-17T06:55:07;7.90;99.90
8862;DHT22;4799;50.996;4.754;2024-03-17T06:57:33;7.90;99.90
8862;DHT22;4799;50.996;4.754;2024-03-17T07:00:00;8.00;99.90
8862;DHT22;4799;50.996;4.754;2024-03-17T07:02:25;8.00;99.90
8862;DHT22;4799;50.996;4.754;2024-03-17T07:04:51;8.10;99.90
8862;DHT22;4799;50.996;4.754;2024-03-17T07:07:17;8.20;99.90
8862;DHT22;4799;50.996;4.754;2024-03-17T07:09:43;8.30;99.90
8862;DHT22;4799;50.996;4.754;2024-03-17T07:12:10;8.40;99.90
8862;DHT22;4799;50.996;4.754;2024-03-17T07:14:36;8.50;99.90
8862;DHT22;4799;50.996;4.754;2024-03-17T07:17:03;8.60;99.90
8862;DHT22;4799;50.996;4.754;2024-03-17T07:19:29;8.60;99.90
8862;DHT22;4799;50.996;4.754;2024-03-17T07:21:57;8.70;99.90
8862;DHT22;4799;50.996;4.754;2024-03-17T07:24:23;8.80;99.90
8862;DHT22;4799;50.996;4.754;2024-03-17T07:26:49;8.90;99.90
8862;DHT22;4799;50.996;4.754;2024-03-17T07:29:15;8.90;99.90
8862;DHT22;4799;50.996;4.754;2024-03-17T07:31:41;9.00;99.90
8862;DHT22;4799;50.996;4.754;2024-03-17T07:34:07;9.00;99.90
8862;DHT22;4799;50.996;4.754;2024-03-17T07:36:32;9.10;99.90
8862;DHT22;4799;50.996;4.754;2024-03-17T07:38:58;9.20;99.90
8862;DHT22;4799;50.996;4.754;2024-03-17T07:41:24;9.20;99.90
8862;DHT22;4799;50.996;4.754;2024-03-17T07:43:50;9.30;99.90
8862;DHT22;4799;50.996;4.754;2024-03-17T07:46:16;9.40;99.90
8862;DHT22;4799;50.996;4.754;2024-03-17T07:48:43;9.40;99.90
8862;DHT22;4799;50.996;4.754;2024-03-17T07:51:16;9.50;99.90
8862;DHT22;4799;50.996;4.754;2024-03-17T07:53:43;9.50;99.90
8862;DHT22;4799;50.996;4.754;2024-03-17T07:56:17;9.60;99.90
8862;DHT22;4799;50.996;4.754;2024-03-17T07:58:45;9.70;99.90
8862;DHT22;4799;50.996;4.754;2024-03-17T08:01:15;9.80;99.90
8862;DHT22;4799;50.996;4.754;2024-03-17T08:03:43;9.90;99.90
8862;DHT22;4799;50.996;4.754;2024-03-17T08:06:10;10.00;99.90
8862;DHT22;4799;50.996;4.754;2024-03-17T08:08:39;10.00;99.90
8862;DHT22;4799;50.996;4.754;2024-03-17T08:11:08;10.10;99.90
8862;DHT22;4799;50.996;4.754;2024-03-17T08:13:34;10.20;99.90
8862;DHT22;4799;50.996;4.754;2024-03-17T08:16:09;10.30;99.90
8862;DHT22;4799;50.996;4.754;2024-03-17T08:18:36;10.50;99.90
8862;DHT22;4799;50.996;4.754;2024-03-17T08:21:02;10.60;99.90
8862;DHT22;4799;50.996;4.754;2024-03-17T08:23:32;10.80;99.90
8862;DHT22;4799;50.996;4.754;2024-03-17T08:25:59;11.00;99.90
8862;DHT22;4799;50.996;4.754;2024-03-17T08:28:26;11.20;99.90
8862;DHT22;4799;50.996;4.754;2024-03-17T08:31:00;11.40;99.90
8862;DHT22;4799;50.996;4.754;2024-03-17T08:33:27;11.60;99.90
8862;DHT22;4799;50.996;4.754;2024-03-17T08:36:07;11.80;99.90
8862;DHT22;4799;50.996;4.754;2024-03-17T08:38:33;11.90;99.90
8862;DHT22;4799;50.996;4.754;2024-03-17T08:41:04;11.90;99.90
8862;DHT22;4799;50.996;4.754;2024-03-17T08:43:30;12.00;99.90
8862;DHT22;4799;50.996;4.754;2024-03-17T08:46:02;12.10;99.90
8862;DHT22;4799;50.996;4.754;2024-03-17T08:48:29;12.10;99.90
8862;DHT22;4799;50.996;4.754;2024-03-17T08:50:56;12.20;99.90
8862;DHT22;4799;50.996;4.754;2024-03-17T08:53:23;12.30;99.90
8862;DHT22;4799;50.996;4.754;2024-03-17T08:55:49;12.30;99.90
8862;DHT22;4799;50.996;4.754;2024-03-17T08:58:15;12.40;99.90
8862;DHT22;4799;50.996;4.754;2024-03-17T09:00:41;12.50;99.90
8862;DHT22;4799;50.996;4.754;2024-03-17T09:03:11;12.60;99.90
8862;DHT22;4799;50.996;4.754;2024-03-17T09:05:41;12.70;99.90
8862;DHT22;4799;50.996;4.754;2024-03-17T09:08:07;12.80;99.90
8862;DHT22;4799;50.996;4.754;2024-03-17T09:10:42;12.90;99.90
8862;DHT22;4799;50.996;4.754;2024-03-17T09:13:17;13.00;99.90
8862;DHT22;4799;50.996;4.754;2024-03-17T09:15:53;13.10;99.90
8862;DHT22;4799;50.996;4.754;2024-03-17T09:18:18;13.10;99.90
8862;DHT22;4799;50.996;4.754;2024-03-17T09:20:44;13.30;99.90
8862;DHT22;4799;50.996;4.754;2024-03-17T09:23:11;13.40;99.90
8862;DHT22;4799;50.996;4.754;2024-03-17T09:25:37;13.50;99.90
8862;DHT22;4799;50.996;4.754;2024-03-17T09:28:03;13.60;99.90
8862;DHT22;4799;50.996;4.754;2024-03-17T09:30:28;13.70;99.90
8862;DHT22;4799;50.996;4.754;2024-03-17T09:32:54;13.80;99.90
8862;DHT22;4799;50.996;4.754;2024-03-17T09:35:20;14.00;99.90
8862;DHT22;4799;50.996;4.754;2024-03-17T09:37:45;14.10;99.90
8862;DHT22;4799;50.996;4.754;2024-03-17T09:40:15;14.20;99.90
8862;DHT22;4799;50.996;4.754;2024-03-17T09:42:41;14.40;99.90
8862;DHT22;4799;50.996;4.754;2024-03-17T09:45:10;14.50;99.90
8862;DHT22;4799;50.996;4.754;2024-03-17T09:47:36;14.50;99.90
8862;DHT22;4799;50.996;4.754;2024-03-17T09:50:05;14.50;99.90
8862;DHT22;4799;50.996;4.754;2024-03-17T09:52:39;14.50;99.90
8862;DHT22;4799;50.996;4.754;2024-03-17T09:55:17;14.50;99.90
8862;DHT22;4799;50.996;4.754;2024-03-17T09:57:43;14.40;99.90
8862;DHT22;4799;50.996;4.754;2024-03-17T10:00:11;14.30;99.90
8862;DHT22;4799;50.996;4.754;2024-03-17T10:05:25;14.40;99.90
8862;DHT22;4799;50.996;4.754;2024-03-17T10:07:51;14.40;99.90
8862;DHT22;4799;50.996;4.754;2024-03-17T10:10:18;14.30;99.90
8862;DHT22;4799;50.996;4.754;2024-03-17T10:12:52;14.30;99.90
8862;DHT22;4799;50.996;4.754;2024-03-17T10:15:18;14.30;99.90
8862;DHT22;4799;50.996;4.754;2024-03-17T10:17:45;14.20;99.90
8862;DHT22;4799;50.996;4.754;2024-03-17T10:20:15;14.20;99.90
8862;DHT22;4799;50.996;4.754;2024-03-17T10:23:01;14.10;99.90
8862;DHT22;4799;50.996;4.754;2024-03-17T10:25:28;14.00;99.90
8862;DHT22;4799;50.996;4.754;2024-03-17T10:27:55;13.90;99.90
8862;DHT22;4799;50.996;4.754;2024-03-17T10:30:22;13.90;99.90
8862;DHT22;4799;50.996;4.754;2024-03-17T10:32:59;13.80;99.90
8862;DHT22;4799;50.996;4.754;2024-03-17T10:35:33;13.80;99.90
8862;DHT22;4799;50.996;4.754;2024-03-17T10:38:04;13.80;99.90
8862;DHT22;4799;50.996;4.754;2024-03-17T10:40:30;13.90;99.90
8862;DHT22;4799;50.996;4.754;2024-03-17T10:42:58;14.00;99.90
8862;DHT22;4799;50.996;4.754;2024-03-17T10:45:26;14.20;99.90
8862;DHT22;4799;50.996;4.754;2024-03-17T10:47:52;14.40;99.90
8862;DHT22;4799;50.996;4.754;2024-03-17T10:50:22;14.60;99.90
8862;DHT22;4799;50.996;4.754;2024-03-17T10:52:52;14.80;99.90
8862;DHT22;4799;50.996;4.754;2024-03-17T10:55:25;15.00;99.90
8862;DHT22;4799;50.996;4.754;2024-03-17T10:57:52;15.00;99.90
8862;DHT22;4799;50.996;4.754;2024-03-17T11:00:20;15.20;99.90
8862;DHT22;4799;50.996;4.754;2024-03-17T11:02:53;15.30;99.90
8862;DHT22;4799;50.996;4.754;2024-03-17T11:05:29;15.40;99.90
8862;DHT22;4799;50.996;4.754;2024-03-17T11:08:00;15.50;99.90
8862;DHT22;4799;50.996;4.754;2024-03-17T11:10:29;15.60;99.90
8862;DHT22;4799;50.996;4.754;2024-03-17T11:12:59;15.70;99.90
8862;DHT22;4799;50.996;4.754;2024-03-17T11:20:35;15.80;99.90
8862;DHT22;4799;50.996;4.754;2024-03-17T11:23:02;15.80;99.90
8862;DHT22;4799;50.996;4.754;2024-03-17T11:27:56;15.80;99.90
8862;DHT22;4799;50.996;4.754;2024-03-17T11:39:05;16.00;99.90
8862;DHT22;4799;50.996;4.754;2024-03-17T11:49:28;16.20;99.90
8862;DHT22;4799;50.996;4.754;2024-03-17T11:51:55;16.30;99.90
8862;DHT22;4799;50.996;4.754;2024-03-17T11:54:24;16.40;99.90
8862;DHT22;4799;50.996;4.754;2024-03-17T11:56:51;16.50;99.90
8862;DHT22;4799;50.996;4.754;2024-03-17T11:59:21;16.60;99.90
8862;DHT22;4799;50.996;4.754;2024-03-17T12:01:49;16.70;99.90
8862;DHT22;4799;50.996;4.754;2024-03-17T12:04:16;16.70;99.90
8862;DHT22;4799;50.996;4.754;2024-03-17T12:06:50;16.80;99.90
8862;DHT22;4799;50.996;4.754;2024-03-17T12:09:20;16.80;99.90
8862;DHT22;4799;50.996;4.754;2024-03-17T12:11:57;16.80;99.90
8862;DHT22;4799;50.996;4.754;2024-03-17T12:14:23;16.90;99.90
8862;DHT22;4799;50.996;4.754;2024-03-17T12:16:57;16.90;99.90
8862;DHT22;4799;50.996;4.754;2024-03-17T12:19:24;17.10;99.90
8862;DHT22;4799;50.996;4.754;2024-03-17T12:21:55;17.20;99.90
8862;DHT22;4799;50.996;4.754;2024-03-17T12:24:23;17.20;99.90
8862;DHT22;4799;50.996;4.754;2024-03-17T12:26:51;17.20;99.90
8862;DHT22;4799;50.996;4.754;2024-03-17T12:32:19;17.60;99.90
8862;DHT22;4799;50.996;4.754;2024-03-17T12:34:49;17.80;99.90
8862;DHT22;4799;50.996;4.754;2024-03-17T12:37:22;18.00;99.90
8862;DHT22;4799;50.996;4.754;2024-03-17T12:39:48;18.20;99.90
8862;DHT22;4799;50.996;4.754;2024-03-17T12:42:16;18.20;99.90
8862;DHT22;4799;50.996;4.754;2024-03-17T12:44:56;18.20;99.90
8862;DHT22;4799;50.996;4.754;2024-03-17T12:47:26;18.10;99.90
8862;DHT22;4799;50.996;4.754;2024-03-17T12:52:31;17.80;99.90
8862;DHT22;4799;50.996;4.754;2024-03-17T12:57:46;17.70;99.90
8862;DHT22;4799;50.996;4.754;2024-03-17T13:00:30;17.70;99.90
8862;DHT22;4799;50.996;4.754;2024-03-17T13:02:57;17.80;99.90
8862;DHT22;4799;50.996;4.754;2024-03-17T13:05:23;17.90;99.90
8862;DHT22;4799;50.996;4.754;2024-03-17T13:07:49;18.00;99.90
8862;DHT22;4799;50.996;4.754;2024-03-17T13:10:16;18.20;99.90
8862;DHT22;4799;50.996;4.754;2024-03-17T13:12:43;18.30;99.90
8862;DHT22;4799;50.996;4.754;2024-03-17T13:15:16;18.40;99.90
8862;DHT22;4799;50.996;4.754;2024-03-17T13:17:44;18.40;99.90
8862;DHT22;4799;50.996;4.754;2024-03-17T13:20:15;18.50;99.90
8862;DHT22;4799;50.996;4.754;2024-03-17T13:22:45;18.60;99.90
8862;DHT22;4799;50.996;4.754;2024-03-17T13:25:22;18.60;99.90
8862;DHT22;4799;50.996;4.754;2024-03-17T13:27:50;18.60;99.70
8862;DHT22;4799;50.996;4.754;2024-03-17T13:30:17;18.50;99.90
8862;DHT22;4799;50.996;4.754;2024-03-17T13:32:44;18.50;99.90
8862;DHT22;4799;50.996;4.754;2024-03-17T13:35:19;18.40;99.90
8862;DHT22;4799;50.996;4.754;2024-03-17T13:37:46;18.50;99.90
8862;DHT22;4799;50.996;4.754;2024-03-17T13:40:16;18.50;99.90
8862;DHT22;4799;50.996;4.754;2024-03-17T13:42:45;18.50;99.90
8862;DHT22;4799;50.996;4.754;2024-03-17T13:45:11;18.60;99.90
8862;DHT22;4799;50.996;4.754;2024-03-17T13:47:38;18.70;99.30
8862;DHT22;4799;50.996;4.754;2024-03-17T13:50:04;18.70;99.50
8862;DHT22;4799;50.996;4.754;2024-03-17T13:52:44;18.70;98.80
8862;DHT22;4799;50.996;4.754;2024-03-17T13:55:28;18.80;98.50
8862;DHT22;4799;50.996;4.754;2024-03-17T13:57:56;18.70;98.00
8862;DHT22;4799;50.996;4.754;2024-03-17T14:00:25;18.60;97.10
8862;DHT22;4799;50.996;4.754;2024-03-17T14:02:52;18.50;97.50
8862;DHT22;4799;50.996;4.754;2024-03-17T14:05:20;18.40;97.70
8862;DHT22;4799;50.996;4.754;2024-03-17T14:07:47;18.30;97.10
8862;DHT22;4799;50.996;4.754;2024-03-17T14:10:16;18.20;98.00
8862;DHT22;4799;50.996;4.754;2024-03-17T14:12:42;18.20;98.40
8862;DHT22;4799;50.996;4.754;2024-03-17T14:15:09;18.10;99.20
8862;DHT22;4799;50.996;4.754;2024-03-17T14:17:38;18.00;99.90
8862;DHT22;4799;50.996;4.754;2024-03-17T14:20:04;18.00;99.90
8862;DHT22;4799;50.996;4.754;2024-03-17T14:22:31;17.80;99.90
8862;DHT22;4799;50.996;4.754;2024-03-17T14:24:57;17.70;99.90
8862;DHT22;4799;50.996;4.754;2024-03-17T14:27:23;17.60;99.90
8862;DHT22;4799;50.996;4.754;2024-03-17T14:29:50;17.50;99.90
8862;DHT22;4799;50.996;4.754;2024-03-17T14:32:16;17.40;99.90
8862;DHT22;4799;50.996;4.754;2024-03-17T14:34:42;17.40;99.90
8862;DHT22;4799;50.996;4.754;2024-03-17T14:37:08;17.40;99.90
8862;DHT22;4799;50.996;4.754;2024-03-17T14:39:34;17.50;99.90
8862;DHT22;4799;50.996;4.754;2024-03-17T14:41:59;17.50;99.90
8862;DHT22;4799;50.996;4.754;2024-03-17T14:44:25;17.50;99.90
8862;DHT22;4799;50.996;4.754;2024-03-17T14:46:51;17.50;99.90
8862;DHT22;4799;50.996;4.754;2024-03-17T14:49:17;17.50;99.90
8862;DHT22;4799;50.996;4.754;2024-03-17T14:51:43;17.40;99.90
8862;DHT22;4799;50.996;4.754;2024-03-17T14:54:09;17.30;99.90
8862;DHT22;4799;50.996;4.754;2024-03-17T14:56:35;17.20;99.90
8862;DHT22;4799;50.996;4.754;2024-03-17T14:59:01;17.10;99.90
8862;DHT22;4799;50.996;4.754;2024-03-17T15:01:27;17.00;99.90
8862;DHT22;4799;50.996;4.754;2024-03-17T15:03:55;16.80;99.90
8862;DHT22;4799;50.996;4.754;2024-03-17T15:06:21;16.60;99.90
8862;DHT22;4799;50.996;4.754;2024-03-17T15:08:47;16.50;99.90
8862;DHT22;4799;50.996;4.754;2024-03-17T15:11:13;16.30;99.90
8862;DHT22;4799;50.996;4.754;2024-03-17T15:13:39;16.20;99.90
8862;DHT22;4799;50.996;4.754;2024-03-17T15:16:07;16.10;99.90
8862;DHT22;4799;50.996;4.754;2024-03-17T15:18:33;16.10;99.90
8862;DHT22;4799;50.996;4.754;2024-03-17T15:21:02;16.20;99.90
8862;DHT22;4799;50.996;4.754;2024-03-17T15:23:30;16.30;99.90
8862;DHT22;4799;50.996;4.754;2024-03-17T15:26:03;16.40;99.90
8862;DHT22;4799;50.996;4.754;2024-03-17T15:28:36;16.50;99.90
8862;DHT22;4799;50.996;4.754;2024-03-17T15:31:06;16.60;99.90
8862;DHT22;4799;50.996;4.754;2024-03-17T15:33:36;16.60;99.90
8862;DHT22;4799;50.996;4.754;2024-03-17T15:36:06;16.70;99.90
8862;DHT22;4799;50.996;4.754;2024-03-17T15:38:34;16.70;99.90
8862;DHT22;4799;50.996;4.754;2024-03-17T15:41:04;16.70;99.90
8862;DHT22;4799;50.996;4.754;2024-03-17T15:43:36;16.80;99.90
8862;DHT22;4799;50.996;4.754;2024-03-17T15:46:07;16.70;99.90
8862;DHT22;4799;50.996;4.754;2024-03-17T15:48:33;16.70;99.90
8862;DHT22;4799;50.996;4.754;2024-03-17T15:50:59;16.70;99.90
8862;DHT22;4799;50.996;4.754;2024-03-17T15:53:25;16.70;99.90
8862;DHT22;4799;50.996;4.754;2024-03-17T15:55:55;16.70;99.90
8862;DHT22;4799;50.996;4.754;2024-03-17T15:58:20;16.70;99.90
8862;DHT22;4799;50.996;4.754;2024-03-17T16:00:46;16.60;99.90
8862;DHT22;4799;50.996;4.754;2024-03-17T16:03:13;16.60;99.90
8862;DHT22;4799;50.996;4.754;2024-03-17T16:05:38;16.50;99.90
8862;DHT22;4799;50.996;4.754;2024-03-17T16:08:07;16.40;99.90
8862;DHT22;4799;50.996;4.754;2024-03-17T16:10:35;16.40;99.90
8862;DHT22;4799;50.996;4.754;2024-03-17T16:13:01;16.30;99.90
8862;DHT22;4799;50.996;4.754;2024-03-17T16:15:27;16.20;99.90
8862;DHT22;4799;50.996;4.754;2024-03-17T16:17:54;16.10;99.90
8862;DHT22;4799;50.996;4.754;2024-03-17T16:23:15;16.00;99.90
8862;DHT22;4799;50.996;4.754;2024-03-17T16:25:45;15.90;99.90
8862;DHT22;4799;50.996;4.754;2024-03-17T16:28:11;15.80;99.90
8862;DHT22;4799;50.996;4.754;2024-03-17T16:30:37;15.70;99.90
8862;DHT22;4799;50.996;4.754;2024-03-17T16:33:04;15.60;99.90
8862;DHT22;4799;50.996;4.754;2024-03-17T16:35:30;15.50;99.90
8862;DHT22;4799;50.996;4.754;2024-03-17T16:37:56;15.40;99.90
8862;DHT22;4799;50.996;4.754;2024-03-17T16:40:22;15.20;99.90
8862;DHT22;4799;50.996;4.754;2024-03-17T16:42:48;15.00;99.90
8862;DHT22;4799;50.996;4.754;2024-03-17T16:45:14;14.90;99.90
8862;DHT22;4799;50.996;4.754;2024-03-17T16:47:41;14.80;99.90
8862;DHT22;4799;50.996;4.754;2024-03-17T16:50:07;14.80;99.90
8862;DHT22;4799;50.996;4.754;2024-03-17T16:52:38;14.70;99.90